createdAt,value
2019-01-28T00:05:59.261Z,11.43
2019-01-28T00:08:44.950Z,14.60
2019-01-28T00:11:54.028Z,10.23
2019-01-28T00:14:23.732Z,13.23
2019-01-28T00:16:59.333Z,14.23
2019-01-28T00:19:29.047Z,13.40
2019-01-28T00:22:08.279Z,12.10
2019-01-28T00:24:45.599Z,12.20
2019-01-28T00:27:15.667Z,14.17
2019-01-28T00:29:45.537Z,15.67
2019-01-28T00:32:25.433Z,13.17
2019-01-28T00:34:55.191Z,10.93
2019-01-28T00:37:27.102Z,15.20
2019-01-28T00:39:56.815Z,10.07
2019-01-28T00:42:29.007Z,15.57
2019-01-28T00:45:18.198Z,14.87
2019-01-28T00:48:00.175Z,16.27
2019-01-28T00:50:48.955Z,15.00
2019-01-28T00:53:18.406Z,14.23
2019-01-28T00:55:48.248Z,16.47
2019-01-28T00:58:19.441Z,15.43
2019-01-28T01:00:51.045Z,14.47
2019-01-28T01:03:20.502Z,14.13
2019-01-28T01:05:52.494Z,16.40
2019-01-28T01:08:30.058Z,11.17
2019-01-28T01:10:57.821Z,12.60
2019-01-28T01:13:27.706Z,13.63
2019-01-28T01:21:33.511Z,15.47
2019-01-28T01:27:00.224Z,10.77
2019-01-28T01:29:52.559Z,14.03
2019-01-28T01:32:36.111Z,16.63
2019-01-28T01:35:27.799Z,12.47
2019-01-28T01:38:22.325Z,13.63
2019-01-28T01:40:52.416Z,14.20
2019-01-28T01:43:25.267Z,17.03
2019-01-28T01:48:49.972Z,14.73
2019-01-28T01:51:18.423Z,18.43
2019-01-28T01:54:00.016Z,17.83
2019-01-28T01:56:30.830Z,20.27
2019-01-28T01:59:00.303Z,20.00
2019-01-28T02:02:16.155Z,17.33
2019-01-28T02:08:13.598Z,18.70
2019-01-28T02:11:54.861Z,15.97
2019-01-28T02:13:52.515Z,17.00
2019-01-28T02:16:27.035Z,19.67
2019-01-28T02:19:15.542Z,21.10
2019-01-28T02:21:48.283Z,18.80
2019-01-28T02:24:18.411Z,15.87
2019-01-28T02:26:48.223Z,17.83
2019-01-28T02:29:19.783Z,18.73
2019-01-28T02:31:49.742Z,17.17
2019-01-28T02:34:19.670Z,18.63
2019-01-28T02:36:49.717Z,19.37
2019-01-28T02:39:24.898Z,19.00
2019-01-28T02:42:14.160Z,17.37
2019-01-28T02:45:05.197Z,18.50
2019-01-28T02:47:53.827Z,15.63
2019-01-28T02:50:49.253Z,21.17
2019-01-28T02:53:38.174Z,21.73
2019-01-28T02:56:27.041Z,22.20
2019-01-28T03:01:51.211Z,17.37
2019-01-28T03:04:21.618Z,18.90
2019-01-28T03:07:00.724Z,13.83
2019-01-28T03:09:52.350Z,21.83
2019-01-28T03:12:21.916Z,21.17
2019-01-28T03:14:51.424Z,21.07
2019-01-28T03:17:20.858Z,19.83
2019-01-28T03:19:57.073Z,21.63
2019-01-28T03:22:37.855Z,22.80
2019-01-28T03:25:26.488Z,18.67
2019-01-28T03:28:07.616Z,20.67
2019-01-28T03:30:45.681Z,22.73
2019-01-28T03:36:31.103Z,23.03
2019-01-28T03:41:53.034Z,20.33
2019-01-28T03:44:22.983Z,23.40
2019-01-28T03:47:12.798Z,21.43
2019-01-28T03:49:42.457Z,18.40
2019-01-28T03:52:25.812Z,21.10
2019-01-28T03:55:00.393Z,16.60
2019-01-28T04:00:25.747Z,22.00
2019-01-28T04:02:58.650Z,24.57
2019-01-28T04:05:47.546Z,24.93
2019-01-28T04:08:17.200Z,20.67
2019-01-28T04:10:50.009Z,21.47
2019-01-28T04:13:38.614Z,22.50
2019-01-28T04:16:11.732Z,21.73
2019-01-28T04:19:00.256Z,24.27
2019-01-28T04:21:41.356Z,22.10
2019-01-28T04:24:11.735Z,23.37
2019-01-28T04:26:41.376Z,23.57
2019-01-28T04:29:22.314Z,21.07
2019-01-28T04:32:11.078Z,23.87
2019-01-28T04:34:41.295Z,21.23
2019-01-28T04:37:13.948Z,19.93
2019-01-28T04:39:51.383Z,22.07
2019-01-28T04:45:36.921Z,24.63
2019-01-28T04:47:53.554Z,20.17
2019-01-28T04:50:23.372Z,21.13
2019-01-28T04:52:54.920Z,23.97
2019-01-28T04:55:43.775Z,19.60
2019-01-28T04:58:17.073Z,24.17
2019-01-28T05:01:05.803Z,23.93
2019-01-28T05:03:38.816Z,21.97
2019-01-28T05:06:11.291Z,24.80
2019-01-28T05:11:29.593Z,20.60
2019-01-28T05:13:59.068Z,23.70
2019-01-28T05:16:28.782Z,21.40
2019-01-28T05:19:17.463Z,18.20
2019-01-28T05:21:59.129Z,20.83
2019-01-28T05:24:32.044Z,23.50
2019-01-28T05:27:09.710Z,17.87
2019-01-28T05:29:58.108Z,18.43
2019-01-28T05:32:27.977Z,17.53
2019-01-28T05:35:37.285Z,21.87
2019-01-28T05:41:17.869Z,24.60
2019-01-28T05:43:50.007Z,20.30
2019-01-28T05:46:42.135Z,21.40
2019-01-28T05:49:12.119Z,21.00
2019-01-28T05:51:49.485Z,19.27
2019-01-28T05:54:19.002Z,23.73
2019-01-28T05:56:48.758Z,22.40
2019-01-28T05:59:18.523Z,21.70
2019-01-28T06:02:07.694Z,20.60
2019-01-28T06:04:42.019Z,23.00
2019-01-28T06:07:30.722Z,26.07
2019-01-28T06:10:01.015Z,21.80
2019-01-28T06:12:49.520Z,22.50
2019-01-28T06:15:38.381Z,21.53
2019-01-28T06:18:32.091Z,22.70
2019-01-28T06:21:16.084Z,25.40
2019-01-28T06:23:47.418Z,21.47
2019-01-28T06:26:22.627Z,21.17
2019-01-28T06:34:31.690Z,19.47
2019-01-28T06:37:01.790Z,21.37
2019-01-28T06:39:32.337Z,24.13
2019-01-28T06:42:21.200Z,19.63
2019-01-28T06:45:02.922Z,19.07
2019-01-28T06:47:36.190Z,21.20
2019-01-28T06:50:07.098Z,22.50
2019-01-28T06:52:58.696Z,23.23
2019-01-28T06:55:47.689Z,21.20
2019-01-28T06:58:18.124Z,26.40
2019-01-28T07:00:50.688Z,20.60
2019-01-28T07:03:39.416Z,20.17
2019-01-28T07:06:28.158Z,18.10
2019-01-28T07:08:50.924Z,19.40
2019-01-28T07:11:41.373Z,19.50
2019-01-28T07:14:11.455Z,18.47
2019-01-28T07:20:03.650Z,20.23
2019-01-28T07:22:33.142Z,23.27
2019-01-28T07:25:03.201Z,19.20
2019-01-28T07:27:35.076Z,22.63
2019-01-28T07:30:08.649Z,20.57
2019-01-28T07:32:57.123Z,18.37
2019-01-28T07:38:16.034Z,25.40
2019-01-28T07:40:46.005Z,22.23
2019-01-28T07:43:15.572Z,21.77
2019-01-28T07:45:46.686Z,24.37
2019-01-28T07:51:26.209Z,22.47
2019-01-28T07:53:55.686Z,24.50
2019-01-28T07:56:25.150Z,26.67
2019-01-28T08:01:29.850Z,26.03
2019-01-28T08:06:59.476Z,21.50
2019-01-28T08:09:38.191Z,21.40
2019-01-28T08:12:08.190Z,21.27
2019-01-28T08:14:56.732Z,20.83
2019-01-28T08:17:38.105Z,22.33
2019-01-28T08:20:15.232Z,23.70
2019-01-28T08:23:05.282Z,22.13
2019-01-28T08:25:35.439Z,20.30
2019-01-28T08:28:05.792Z,17.97
2019-01-28T08:30:37.803Z,23.37
2019-01-28T08:33:07.693Z,23.00
2019-01-28T08:35:38.350Z,26.67
2019-01-28T08:38:20.767Z,22.03
2019-01-28T08:40:50.269Z,24.47
2019-01-28T08:43:19.887Z,22.57
2019-01-28T08:45:49.423Z,22.43
2019-01-28T08:48:19.008Z,19.40
2019-01-28T08:50:49.207Z,17.33
2019-01-28T08:53:18.947Z,20.43
2019-01-28T08:55:48.752Z,21.47
2019-01-28T08:58:37.717Z,20.23
2019-01-28T09:01:26.860Z,20.33
2019-01-28T09:04:07.524Z,21.83
2019-01-28T09:09:31.688Z,23.07
2019-01-28T09:17:58.769Z,19.13
2019-01-28T09:20:37.177Z,17.33
2019-01-28T09:23:06.812Z,16.33
2019-01-28T09:25:36.471Z,17.13
2019-01-28T09:28:06.263Z,19.90
2019-01-28T09:30:36.331Z,17.63
2019-01-28T09:33:05.962Z,17.03
2019-01-28T09:35:35.566Z,16.70
2019-01-28T09:38:24.654Z,16.77
2019-01-28T09:40:54.446Z,17.63
2019-01-28T09:43:24.587Z,18.20
2019-01-28T09:45:54.074Z,17.83
2019-01-28T09:48:23.629Z,16.50
2019-01-28T09:50:53.100Z,15.13
2019-01-28T09:53:22.972Z,13.87
2019-01-28T09:55:53.054Z,15.33
2019-01-28T09:58:22.466Z,14.50
2019-01-28T10:00:52.464Z,15.57
2019-01-28T10:03:40.970Z,15.93
2019-01-28T10:06:29.491Z,16.47
2019-01-28T10:08:59.240Z,17.03
2019-01-28T10:11:47.752Z,14.50
2019-01-28T10:14:29.213Z,15.17
2019-01-28T10:19:47.448Z,15.37
2019-01-28T10:22:36.097Z,14.93
2019-01-28T10:25:46.419Z,13.87
2019-01-28T10:28:16.330Z,13.47
2019-01-28T10:30:46.805Z,13.47
2019-01-28T10:36:11.796Z,14.07
2019-01-28T10:38:45.020Z,15.83
2019-01-28T10:41:26.322Z,14.40
2019-01-28T10:43:55.757Z,14.47
2019-01-28T10:46:27.885Z,15.97
2019-01-28T10:48:57.706Z,15.63
2019-01-28T10:51:46.790Z,14.50
2019-01-28T10:54:16.342Z,17.67
2019-01-28T10:56:45.874Z,14.73
2019-01-28T10:59:15.557Z,15.60
2019-01-28T11:01:45.216Z,15.43
2019-01-28T11:04:14.772Z,15.27
2019-01-28T11:06:44.350Z,15.43
2019-01-28T11:09:13.957Z,13.57
2019-01-28T11:11:43.571Z,15.13
2019-01-28T11:14:13.242Z,15.87
2019-01-28T11:16:43.241Z,14.33
2019-01-28T11:19:12.872Z,13.90
2019-01-28T11:21:42.557Z,25.50
2019-01-28T11:24:12.183Z,15.87
2019-01-28T11:26:41.977Z,14.70
2019-01-28T11:29:30.253Z,14.60
2019-01-28T11:31:59.854Z,13.23
2019-01-28T11:34:29.256Z,14.67
2019-01-28T11:36:58.732Z,16.03
2019-01-28T11:39:28.335Z,16.77
2019-01-28T11:41:58.737Z,15.53
2019-01-28T11:44:29.938Z,15.20
2019-01-28T11:46:59.411Z,14.33
2019-01-28T11:49:28.956Z,15.17
2019-01-28T11:54:33.465Z,14.13
2019-01-28T11:57:03.860Z,14.00
2019-01-28T11:59:33.396Z,15.97
2019-01-28T12:02:02.878Z,18.27
2019-01-28T12:04:32.297Z,13.63
2019-01-28T12:07:01.984Z,13.93
2019-01-28T12:09:31.401Z,16.27
2019-01-28T12:12:01.040Z,16.40
2019-01-28T12:14:30.500Z,16.83
2019-01-28T12:17:00.045Z,16.50
2019-01-28T12:19:29.612Z,14.93
2019-01-28T12:21:59.026Z,15.77
2019-01-28T12:24:28.602Z,17.37
2019-01-28T12:26:58.167Z,15.43
2019-01-28T12:29:27.599Z,15.20
2019-01-28T12:31:57.055Z,18.70
2019-01-28T12:34:26.555Z,18.17
2019-01-28T12:36:55.967Z,13.27
2019-01-28T12:39:25.418Z,16.80
2019-01-28T12:44:41.531Z,17.57
2019-01-28T12:47:11.144Z,16.73
2019-01-28T12:49:40.662Z,17.97
2019-01-28T12:52:10.144Z,18.23
2019-01-28T12:54:39.635Z,18.03
2019-01-28T12:57:09.153Z,16.10
2019-01-28T12:59:38.591Z,20.03
2019-01-28T13:02:08.570Z,17.30
2019-01-28T13:04:42.240Z,20.07
2019-01-28T13:07:09.522Z,20.17
2019-01-28T13:09:50.171Z,17.13
2019-01-28T13:12:19.689Z,16.40
2019-01-28T13:14:49.067Z,19.03
2019-01-28T13:25:03.752Z,16.60
2019-01-28T13:27:33.178Z,14.77
2019-01-28T13:30:02.636Z,21.27
2019-01-28T13:35:40.980Z,19.07
2019-01-28T13:38:10.499Z,19.93
2019-01-28T13:40:39.903Z,17.13
2019-01-28T13:43:09.384Z,17.60
2019-01-28T13:45:38.818Z,17.73
2019-01-28T13:48:27.318Z,17.80
2019-01-28T13:51:09.067Z,18.80
2019-01-28T13:53:50.514Z,20.60
2019-01-28T13:56:20.100Z,23.07
2019-01-28T13:59:16.232Z,15.57
2019-01-28T14:02:00.218Z,16.80
2019-01-28T14:07:10.522Z,17.23
2019-01-28T14:12:23.614Z,18.53
2019-01-28T14:17:46.478Z,15.83
2019-01-28T14:20:19.290Z,17.20
2019-01-28T14:22:49.124Z,16.20
2019-01-28T14:25:18.654Z,17.00
2019-01-28T14:27:49.994Z,17.80
2019-01-28T14:33:08.996Z,20.23
2019-01-28T14:35:39.082Z,21.70
2019-01-28T14:38:09.860Z,16.87
2019-01-28T14:40:40.247Z,17.50
2019-01-28T14:43:09.957Z,14.30
2019-01-28T14:45:39.427Z,16.93
2019-01-28T14:48:11.293Z,17.57
2019-01-28T14:50:41.023Z,17.07
2019-01-28T14:53:10.470Z,16.70
2019-01-28T14:58:16.767Z,18.40
2019-01-28T15:00:47.802Z,16.20
2019-01-28T15:03:17.565Z,19.50
2019-01-28T15:06:10.771Z,16.47
2019-01-28T15:12:06.540Z,19.30
2019-01-28T15:14:36.148Z,19.77
2019-01-28T15:17:06.063Z,20.90
2019-01-28T15:20:02.078Z,18.60
2019-01-28T15:22:25.713Z,23.00
2019-01-28T15:24:55.139Z,22.47
2019-01-28T15:33:16.026Z,19.17
2019-01-28T15:38:45.986Z,19.50
2019-01-28T15:41:15.581Z,21.30
2019-01-28T15:43:45.315Z,21.30
2019-01-28T15:46:15.107Z,19.60
2019-01-28T15:51:44.978Z,20.30
2019-01-28T15:54:14.702Z,23.17
2019-01-28T15:56:44.652Z,23.33
2019-01-28T16:02:14.718Z,22.47
2019-01-28T16:07:38.600Z,21.83
2019-01-28T16:10:10.737Z,26.37
2019-01-28T16:12:40.160Z,22.83
2019-01-28T16:15:30.015Z,24.03
2019-01-28T16:21:01.620Z,22.00
2019-01-28T16:23:31.053Z,21.90
2019-01-28T16:26:00.568Z,22.47
2019-01-28T16:28:49.089Z,16.83
2019-01-28T16:31:18.540Z,23.87
2019-01-28T16:33:48.080Z,21.60
2019-01-28T16:36:36.455Z,24.90
2019-01-28T16:39:08.743Z,21.77
2019-01-28T16:41:38.400Z,22.17
2019-01-28T16:44:08.242Z,28.63
2019-01-28T16:46:37.857Z,24.90
2019-01-28T16:49:07.292Z,25.13
2019-01-28T16:51:36.830Z,23.60
2019-01-28T16:54:06.569Z,24.13
2019-01-28T16:56:36.093Z,25.27
2019-01-28T16:59:07.842Z,27.27
2019-01-28T17:01:37.329Z,27.77
2019-01-28T17:04:26.789Z,25.47
2019-01-28T17:06:56.455Z,24.87
2019-01-28T17:09:45.043Z,22.03
2019-01-28T17:12:18.440Z,22.90
2019-01-28T17:15:07.943Z,21.00
2019-01-28T17:17:37.460Z,25.20
2019-01-28T17:20:35.223Z,25.27
2019-01-28T17:26:03.483Z,24.13
2019-01-28T17:28:33.162Z,25.83
2019-01-28T17:31:02.644Z,27.60
2019-01-28T17:33:32.145Z,24.30
2019-01-28T17:36:01.683Z,26.83
2019-01-28T17:41:19.567Z,23.40
2019-01-28T17:43:49.035Z,26.13
2019-01-28T17:46:18.574Z,25.40
2019-01-28T17:49:25.913Z,24.70
2019-01-28T17:51:55.364Z,25.80
2019-01-28T17:54:24.802Z,25.27
2019-01-28T17:56:54.298Z,24.30
2019-01-28T17:59:23.731Z,25.30
2019-01-28T18:01:53.360Z,27.37
2019-01-28T18:04:22.772Z,32.42
2019-01-28T18:06:52.292Z,26.23
2019-01-28T18:09:21.717Z,28.80
2019-01-28T18:11:51.409Z,26.37
2019-01-28T18:14:20.887Z,23.80
2019-01-28T18:16:50.445Z,24.23
2019-01-28T18:21:54.700Z,23.93
2019-01-28T18:24:35.637Z,23.47
2019-01-28T18:27:22.776Z,22.47
2019-01-28T18:34:56.458Z,23.83
2019-01-28T18:40:07.214Z,25.47
2019-01-28T18:42:39.047Z,26.47
2019-01-28T18:45:17.987Z,26.50
2019-01-28T18:47:55.413Z,25.17
2019-01-28T18:52:57.042Z,23.70
2019-01-28T18:55:26.441Z,22.57
2019-01-28T18:57:56.130Z,34.33
2019-01-28T19:00:44.771Z,30.63
2019-01-28T19:03:26.089Z,28.40
2019-01-28T19:09:11.076Z,43.93
2019-01-28T19:14:53.595Z,31.43
2019-01-28T19:17:44.618Z,39.10
2019-01-28T19:20:52.018Z,32.47
2019-01-28T19:23:21.529Z,24.63
2019-01-28T19:25:51.026Z,46.40
2019-01-28T19:28:20.583Z,29.60
2019-01-28T19:31:08.347Z,47.40
2019-01-28T19:33:37.946Z,31.63
2019-01-28T19:38:56.539Z,43.00
2019-01-28T19:41:25.983Z,23.03
2019-01-28T19:43:55.503Z,24.63
2019-01-28T19:46:24.979Z,28.33
2019-01-28T19:48:54.902Z,26.80
2019-01-28T19:51:24.374Z,27.00
2019-01-28T19:53:56.739Z,31.33
2019-01-28T19:56:35.516Z,30.30
2019-01-28T20:01:57.825Z,25.03
2019-01-28T20:04:40.506Z,28.30
2019-01-28T20:07:22.086Z,22.80
2019-01-28T20:12:54.033Z,27.80
2019-01-28T20:15:43.907Z,22.67
2019-01-28T20:18:15.042Z,27.87
2019-01-28T20:20:45.116Z,24.40
2019-01-28T20:26:03.057Z,26.60
2019-01-28T20:28:32.520Z,27.77
2019-01-28T20:31:14.256Z,30.13
2019-01-28T20:33:33.107Z,22.60
2019-01-28T20:36:02.649Z,30.33
2019-01-28T20:38:32.087Z,29.07
2019-01-28T20:41:04.058Z,21.17
2019-01-28T20:43:33.469Z,24.67
2019-01-28T20:46:02.982Z,25.20
2019-01-28T20:48:32.496Z,23.13
2019-01-28T20:51:01.937Z,18.90
2019-01-28T20:53:31.383Z,16.77
2019-01-28T20:56:01.471Z,19.73
2019-01-28T20:58:30.893Z,17.00
2019-01-28T21:01:00.324Z,15.23
2019-01-28T21:03:29.868Z,15.80
2019-01-28T21:05:59.904Z,16.03
2019-01-28T21:08:29.299Z,16.40
2019-01-28T21:10:58.847Z,14.17
2019-01-28T21:13:28.370Z,15.87
2019-01-28T21:15:57.934Z,13.33
2019-01-28T21:18:27.490Z,16.33
2019-01-28T21:20:56.990Z,13.83
2019-01-28T21:23:26.470Z,13.40
2019-01-28T21:25:55.950Z,14.63
2019-01-28T21:28:25.366Z,14.57
2019-01-28T21:30:55.480Z,12.03
2019-01-28T21:33:25.032Z,13.07
2019-01-28T21:36:19.939Z,13.03
2019-01-28T21:38:51.076Z,10.53
2019-01-28T21:41:21.077Z,13.40
2019-01-28T21:44:16.475Z,11.00
2019-01-28T21:46:34.982Z,11.20
2019-01-28T21:49:04.817Z,13.57
2019-01-28T21:54:44.838Z,12.33
2019-01-28T21:57:14.512Z,13.53
2019-01-28T21:59:44.025Z,12.33
2019-01-28T22:02:53.055Z,10.50
2019-01-28T22:04:47.418Z,10.97
2019-01-28T22:07:28.262Z,10.70
2019-01-28T22:09:57.984Z,10.97
2019-01-28T22:12:50.719Z,11.70
2019-01-28T22:15:11.741Z,11.80
2019-01-28T22:17:41.173Z,13.27
2019-01-28T22:23:24.298Z,9.57
2019-01-28T22:25:53.801Z,10.03
2019-01-28T22:28:23.289Z,11.73
2019-01-28T22:31:17.174Z,10.63
2019-01-28T22:33:45.338Z,7.93
2019-01-28T22:36:14.821Z,11.70
2019-01-28T22:41:35.008Z,10.27
2019-01-28T22:44:05.968Z,7.57
2019-01-28T22:46:35.410Z,8.37
2019-01-28T22:51:39.677Z,9.20
2019-01-28T22:54:09.344Z,8.23
2019-01-28T22:56:57.776Z,8.80
2019-01-28T22:59:27.535Z,9.13
2019-01-28T23:01:57.136Z,6.30
2019-01-28T23:04:45.865Z,6.87
2019-01-28T23:07:17.001Z,7.13
2019-01-28T23:09:46.406Z,7.13
2019-01-28T23:12:16.096Z,6.00
2019-01-28T23:14:45.530Z,5.83
2019-01-28T23:17:15.133Z,5.70
2019-01-28T23:19:44.714Z,8.13
2019-01-28T23:22:16.558Z,6.23
2019-01-28T23:24:45.426Z,5.83
2019-01-28T23:27:15.072Z,6.07
2019-01-28T23:32:53.285Z,7.77
2019-01-28T23:35:23.160Z,8.97
2019-01-28T23:37:52.654Z,6.13
2019-01-28T23:40:26.377Z,7.47
2019-01-28T23:43:16.898Z,7.47
2019-01-28T23:45:46.297Z,9.43
2019-01-28T23:48:16.065Z,7.37
2019-01-28T23:50:45.427Z,6.87
2019-01-28T23:53:15.109Z,8.07
2019-01-28T23:55:44.611Z,6.07
2019-01-28T23:58:14.268Z,7.37
